createdAt,value
2023-10-16T00:01:10.804Z,6.63
2023-10-16T00:03:43.887Z,6.67
2023-10-16T00:06:13.651Z,6.56
2023-10-16T00:08:48.454Z,6.63
2023-10-16T00:11:19.329Z,6.64
2023-10-16T00:13:49.410Z,6.59
2023-10-16T00:16:18.863Z,6.49
2023-10-16T00:18:47.754Z,6.54
2023-10-16T00:21:16.110Z,6.62
2023-10-16T00:23:44.139Z,6.63
2023-10-16T00:26:15.935Z,6.57
2023-10-16T00:29:02.292Z,6.44
2023-10-16T00:31:33.901Z,6.41
2023-10-16T00:34:03.802Z,6.43
2023-10-16T00:36:32.973Z,6.53
2023-10-16T00:39:13.852Z,6.47
2023-10-16T00:41:43.206Z,6.51
2023-10-16T00:44:15.920Z,6.35
2023-10-16T00:46:46.158Z,6.39
2023-10-16T00:49:15.224Z,6.38
2023-10-16T00:51:43.562Z,6.39
2023-10-16T00:54:18.115Z,6.38
2023-10-16T00:56:47.015Z,6.27
2023-10-16T00:59:18.183Z,6.32
2023-10-16T01:01:46.966Z,6.35
2023-10-16T01:04:17.543Z,6.39
2023-10-16T01:06:46.384Z,6.26
2023-10-16T01:09:23.577Z,6.30
2023-10-16T01:11:51.846Z,6.34
2023-10-16T01:14:21.479Z,6.31
2023-10-16T01:16:49.758Z,6.31
2023-10-16T01:19:21.191Z,6.32
2023-10-16T01:21:49.846Z,6.20
2023-10-16T01:24:20.968Z,6.18
2023-10-16T01:26:49.564Z,6.26
2023-10-16T01:29:17.599Z,6.22
2023-10-16T01:31:48.971Z,6.29
2023-10-16T01:34:16.917Z,6.30
2023-10-16T01:36:47.155Z,6.20
2023-10-16T01:39:29.634Z,6.17
2023-10-16T01:42:02.325Z,6.26
2023-10-16T01:44:30.531Z,6.15
2023-10-16T01:46:58.557Z,6.18
2023-10-16T01:49:26.797Z,6.17
2023-10-16T01:51:57.858Z,6.21
2023-10-16T01:54:26.770Z,6.24
2023-10-16T01:56:54.922Z,6.28
2023-10-16T01:59:24.176Z,6.20
2023-10-16T02:01:52.095Z,6.25
2023-10-16T02:04:21.368Z,6.18
2023-10-16T02:06:50.660Z,6.08
2023-10-16T02:09:24.821Z,6.11
2023-10-16T02:11:53.146Z,6.03
2023-10-16T02:14:21.454Z,6.08
2023-10-16T02:16:52.888Z,6.06
2023-10-16T02:19:21.992Z,5.99
2023-10-16T02:21:51.381Z,6.02
2023-10-16T02:24:19.481Z,6.02
2023-10-16T02:26:56.907Z,5.98
2023-10-16T02:29:25.686Z,5.99
2023-10-16T02:31:55.401Z,6.05
2023-10-16T02:34:25.219Z,5.98
2023-10-16T02:36:55.711Z,5.98
2023-10-16T02:39:37.645Z,5.95
2023-10-16T02:42:09.923Z,5.87
2023-10-16T02:44:40.314Z,5.91
2023-10-16T02:47:14.356Z,5.90
2023-10-16T02:49:49.079Z,5.98
2023-10-16T02:52:18.640Z,5.99
2023-10-16T02:54:48.623Z,5.95
2023-10-16T02:57:16.780Z,5.88
2023-10-16T02:59:45.956Z,5.82
2023-10-16T03:02:19.011Z,5.81
2023-10-16T03:04:52.563Z,5.77
2023-10-16T03:07:22.650Z,5.87
2023-10-16T03:09:52.688Z,5.73
2023-10-16T03:12:22.104Z,5.81
2023-10-16T03:14:57.901Z,5.76
2023-10-16T03:17:35.833Z,5.75
2023-10-16T03:20:10.603Z,5.77
2023-10-16T03:22:38.809Z,5.80
2023-10-16T03:25:25.626Z,5.82
2023-10-16T03:27:56.425Z,5.82
2023-10-16T03:30:28.330Z,5.74
2023-10-16T03:33:00.423Z,5.73
2023-10-16T03:35:31.280Z,5.78
2023-10-16T03:37:59.760Z,5.72
2023-10-16T03:40:28.641Z,5.81
2023-10-16T03:42:57.270Z,5.82
2023-10-16T03:45:25.344Z,5.74
2023-10-16T03:47:54.847Z,5.77
2023-10-16T03:50:27.077Z,5.72
2023-10-16T03:52:56.372Z,5.71
2023-10-16T03:55:27.847Z,5.73
2023-10-16T03:57:56.745Z,5.68
2023-10-16T04:00:27.774Z,5.74
2023-10-16T04:03:00.859Z,5.62
2023-10-16T04:05:34.587Z,5.75
2023-10-16T04:08:03.174Z,5.79
2023-10-16T04:10:31.599Z,5.70
2023-10-16T04:13:01.091Z,5.70
2023-10-16T04:15:59.948Z,5.71
2023-10-16T04:18:32.282Z,5.70
2023-10-16T04:21:19.485Z,5.62
2023-10-16T04:23:56.679Z,5.66
2023-10-16T04:26:33.621Z,5.62
2023-10-16T04:29:20.216Z,5.66
2023-10-16T04:31:56.485Z,5.67
2023-10-16T04:34:33.729Z,5.69
2023-10-16T04:37:21.451Z,5.70
2023-10-16T04:40:08.774Z,5.73
2023-10-16T04:43:08.908Z,5.73
2023-10-16T04:46:00.664Z,5.73
2023-10-16T04:48:49.264Z,5.58
2023-10-16T04:51:45.703Z,5.54
2023-10-16T04:54:17.675Z,5.65
2023-10-16T04:56:59.653Z,5.67
2023-10-16T04:59:55.307Z,5.57
2023-10-16T05:02:34.774Z,5.53
2023-10-16T05:05:20.538Z,5.55
2023-10-16T05:07:54.484Z,5.53
2023-10-16T05:10:41.642Z,5.50
2023-10-16T05:13:40.915Z,5.59
2023-10-16T05:16:26.321Z,5.57
2023-10-16T05:19:04.352Z,5.54
2023-10-16T05:22:03.365Z,5.49
2023-10-16T05:24:49.034Z,5.47
2023-10-16T05:27:36.815Z,5.51
2023-10-16T05:30:21.869Z,5.59
2023-10-16T05:33:07.515Z,5.55
2023-10-16T05:35:52.680Z,5.56
2023-10-16T05:38:37.990Z,5.61
2023-10-16T05:41:24.238Z,5.51
2023-10-16T05:44:11.506Z,5.60
2023-10-16T05:46:57.284Z,5.55
2023-10-16T05:49:42.986Z,5.65
2023-10-16T05:52:28.821Z,5.57
2023-10-16T05:55:14.206Z,5.63
2023-10-16T05:58:03.200Z,5.69
2023-10-16T06:00:50.403Z,5.64
2023-10-16T06:03:36.591Z,5.73
2023-10-16T06:06:22.061Z,5.86
2023-10-16T06:09:07.459Z,5.91
2023-10-16T06:11:53.101Z,5.95
2023-10-16T06:14:21.570Z,5.84
2023-10-16T06:16:54.424Z,5.91
2023-10-16T06:19:24.077Z,5.88
2023-10-16T06:21:53.912Z,6.08
2023-10-16T06:24:36.819Z,6.02
2023-10-16T06:27:10.159Z,6.08
2023-10-16T06:29:41.621Z,6.47
2023-10-16T06:32:19.731Z,6.40
2023-10-16T06:34:48.970Z,6.51
2023-10-16T06:37:19.091Z,6.54
2023-10-16T06:39:47.279Z,6.67
2023-10-16T06:42:19.136Z,6.87
2023-10-16T06:44:51.664Z,6.73
2023-10-16T06:47:25.206Z,6.65
2023-10-16T06:49:53.645Z,6.46
2023-10-16T06:52:21.500Z,6.43
2023-10-16T06:54:49.848Z,6.65
2023-10-16T06:57:20.604Z,7.11
2023-10-16T06:59:51.742Z,7.58
2023-10-16T07:02:21.898Z,7.52
2023-10-16T07:04:50.136Z,7.47
2023-10-16T07:07:22.547Z,8.06
2023-10-16T07:09:51.038Z,8.12
2023-10-16T07:12:19.727Z,8.74
2023-10-16T07:14:56.477Z,9.25
2023-10-16T07:17:26.828Z,10.30
2023-10-16T07:20:00.128Z,10.98
2023-10-16T07:22:32.552Z,12.21
2023-10-16T07:25:10.104Z,12.29
2023-10-16T07:27:38.470Z,13.75
2023-10-16T07:30:22.898Z,13.71
2023-10-16T07:32:52.571Z,13.03
2023-10-16T07:35:22.562Z,14.72
2023-10-16T07:37:54.399Z,14.35
2023-10-16T07:40:22.602Z,13.10
2023-10-16T07:42:50.623Z,12.41
2023-10-16T07:45:19.021Z,13.41
2023-10-16T07:47:49.814Z,12.42
2023-10-16T07:50:20.249Z,13.04
2023-10-16T07:52:48.343Z,12.89
2023-10-16T07:55:20.377Z,14.05
2023-10-16T07:57:49.213Z,13.71
2023-10-16T08:00:43.175Z,12.25
2023-10-16T08:03:15.519Z,13.26
2023-10-16T08:05:48.267Z,12.04
2023-10-16T08:08:26.799Z,10.75
2023-10-16T08:10:53.832Z,11.22
2023-10-16T08:13:25.492Z,13.15
2023-10-16T08:15:57.099Z,14.28
2023-10-16T08:18:26.992Z,15.37
2023-10-16T08:21:08.634Z,15.01
2023-10-16T08:23:36.662Z,14.78
2023-10-16T08:26:15.617Z,15.92
2023-10-16T08:28:46.385Z,15.30
2023-10-16T08:31:25.236Z,15.84
2023-10-16T08:33:55.537Z,16.39
2023-10-16T08:36:25.522Z,17.18
2023-10-16T08:38:56.818Z,17.10
2023-10-16T08:41:31.809Z,17.24
2023-10-16T08:44:11.957Z,17.18
2023-10-16T08:46:47.153Z,17.45
2023-10-16T08:49:16.331Z,17.82
2023-10-16T08:51:46.243Z,18.09
2023-10-16T08:54:54.557Z,18.93
2023-10-16T08:57:23.355Z,18.41
2023-10-16T08:59:51.915Z,18.11
2023-10-16T09:02:22.286Z,17.74
2023-10-16T09:04:51.019Z,18.10
2023-10-16T09:07:20.760Z,17.56
2023-10-16T09:09:49.905Z,16.00
2023-10-16T09:12:27.176Z,14.60
2023-10-16T09:14:56.428Z,14.33
2023-10-16T09:17:26.828Z,16.04
2023-10-16T09:20:05.487Z,16.22
2023-10-16T09:22:36.685Z,17.72
2023-10-16T09:25:07.534Z,17.80
2023-10-16T09:27:37.697Z,16.12
2023-10-16T09:30:15.843Z,14.45
2023-10-16T09:32:44.009Z,13.40
2023-10-16T09:35:13.883Z,14.33
2023-10-16T09:37:48.674Z,14.51
2023-10-16T09:40:39.398Z,16.84
2023-10-16T09:43:19.183Z,18.09
2023-10-16T09:45:48.702Z,18.91
2023-10-16T09:48:20.747Z,18.45
2023-10-16T09:50:49.431Z,18.04
2023-10-16T09:53:19.350Z,18.41
2023-10-16T09:55:49.473Z,19.49
2023-10-16T09:58:19.790Z,17.71
2023-10-16T10:00:50.588Z,19.48
2023-10-16T10:03:20.800Z,18.71
2023-10-16T10:05:56.374Z,17.39
2023-10-16T10:08:39.477Z,15.80
2023-10-16T10:11:29.531Z,14.57
2023-10-16T10:14:11.921Z,13.13
2023-10-16T10:16:46.283Z,12.38
2023-10-16T10:19:25.719Z,13.61
2023-10-16T10:21:55.009Z,13.87
2023-10-16T10:24:25.832Z,14.78
2023-10-16T10:26:53.950Z,14.26
2023-10-16T10:29:21.967Z,15.52
2023-10-16T10:31:52.123Z,17.72
2023-10-16T10:34:25.267Z,16.93
2023-10-16T10:36:54.489Z,16.41
2023-10-16T10:39:48.748Z,14.90
2023-10-16T10:42:25.715Z,17.02
2023-10-16T10:45:18.519Z,17.14
2023-10-16T10:47:47.308Z,15.29
2023-10-16T10:50:15.568Z,14.30
2023-10-16T10:52:44.799Z,12.95
2023-10-16T10:55:20.735Z,12.34
2023-10-16T10:57:49.932Z,12.43
2023-10-16T11:00:26.232Z,12.17
2023-10-16T11:03:06.562Z,11.64
2023-10-16T11:05:35.217Z,12.89
2023-10-16T11:08:23.592Z,13.98
2023-10-16T11:10:53.296Z,16.93
2023-10-16T11:13:22.542Z,17.64
2023-10-16T11:15:53.865Z,16.26
2023-10-16T11:18:23.124Z,14.62
2023-10-16T11:20:54.327Z,13.69
2023-10-16T11:23:23.693Z,12.81
2023-10-16T11:25:53.594Z,12.41
2023-10-16T11:28:22.494Z,11.85
2023-10-16T11:30:55.077Z,11.74
2023-10-16T11:33:27.880Z,11.80
2023-10-16T11:36:04.062Z,11.74
2023-10-16T11:38:32.468Z,11.75
2023-10-16T11:41:06.144Z,11.63
2023-10-16T11:43:39.096Z,11.56
2023-10-16T11:46:27.915Z,11.63
2023-10-16T11:48:59.822Z,11.74
2023-10-16T11:51:28.479Z,11.37
2023-10-16T11:54:00.262Z,11.58
2023-10-16T11:56:35.551Z,11.36
2023-10-16T11:59:04.819Z,11.39
2023-10-16T12:01:43.546Z,11.43
2023-10-16T12:04:21.929Z,11.37
2023-10-16T12:06:50.027Z,11.35
2023-10-16T12:09:20.428Z,11.60
2023-10-16T12:11:50.811Z,11.24
2023-10-16T12:14:19.195Z,11.36
2023-10-16T12:16:48.424Z,11.35
2023-10-16T12:19:17.426Z,12.14
2023-10-16T12:21:49.022Z,12.40
2023-10-16T12:24:17.641Z,11.89
2023-10-16T12:26:46.976Z,12.08
2023-10-16T12:29:16.353Z,11.92
2023-10-16T12:31:44.327Z,11.95
2023-10-16T12:34:13.634Z,11.89
2023-10-16T12:36:43.750Z,11.89
2023-10-16T12:39:17.854Z,11.82
2023-10-16T12:41:46.311Z,11.81
2023-10-16T12:44:15.077Z,11.70
2023-10-16T12:46:44.739Z,11.71
2023-10-16T12:49:14.703Z,11.61
2023-10-16T12:51:44.118Z,11.39
2023-10-16T12:54:13.764Z,11.22
2023-10-16T12:56:44.320Z,11.26
2023-10-16T12:59:13.050Z,11.40
2023-10-16T13:01:41.725Z,11.35
2023-10-16T13:04:16.357Z,11.52
2023-10-16T13:06:45.213Z,11.51
2023-10-16T13:09:17.911Z,11.33
2023-10-16T13:11:46.657Z,11.50
2023-10-16T13:14:14.847Z,11.37
2023-10-16T13:16:44.702Z,11.33
2023-10-16T13:19:14.030Z,11.32
2023-10-16T13:21:42.979Z,11.52
2023-10-16T13:24:12.570Z,11.28
2023-10-16T13:26:41.465Z,11.49
2023-10-16T13:29:12.470Z,11.62
2023-10-16T13:31:42.221Z,11.45
2023-10-16T13:34:12.173Z,11.42
2023-10-16T13:36:43.746Z,11.50
2023-10-16T13:39:12.049Z,11.47
2023-10-16T13:41:51.587Z,11.43
2023-10-16T13:44:20.865Z,11.60
2023-10-16T13:46:49.115Z,11.60
2023-10-16T13:49:19.085Z,11.63
2023-10-16T13:51:49.423Z,11.35
2023-10-16T13:54:17.388Z,11.19
2023-10-16T13:56:48.017Z,11.21
2023-10-16T13:59:19.274Z,11.12
2023-10-16T14:01:47.520Z,11.29
2023-10-16T14:04:16.564Z,11.32
2023-10-16T14:06:45.422Z,11.41
2023-10-16T14:09:20.779Z,11.18
2023-10-16T14:11:51.732Z,11.36
2023-10-16T14:14:21.583Z,11.27
2023-10-16T14:16:51.290Z,11.53
2023-10-16T14:19:23.309Z,11.52
2023-10-16T14:21:53.145Z,11.37
2023-10-16T14:24:26.014Z,11.29
2023-10-16T14:26:59.659Z,11.27
2023-10-16T14:29:28.736Z,11.39
2023-10-16T14:31:58.410Z,11.26
2023-10-16T14:34:28.308Z,11.32
2023-10-16T14:36:59.251Z,11.18
2023-10-16T14:39:30.428Z,11.15
2023-10-16T14:42:02.718Z,11.04
2023-10-16T14:44:30.944Z,11.00
2023-10-16T14:46:58.941Z,10.96
2023-10-16T14:49:27.209Z,10.99
2023-10-16T14:51:55.971Z,10.96
2023-10-16T14:54:24.141Z,11.08
2023-10-16T14:56:53.484Z,10.89
2023-10-16T14:59:33.438Z,11.02
2023-10-16T15:02:02.436Z,11.10
2023-10-16T15:04:30.981Z,11.22
2023-10-16T15:07:05.561Z,11.11
2023-10-16T15:09:34.688Z,10.88
2023-10-16T15:12:04.984Z,11.17
2023-10-16T15:14:33.989Z,10.96
2023-10-16T15:17:02.092Z,10.83
2023-10-16T15:19:30.143Z,10.77
2023-10-16T15:21:59.326Z,10.69
2023-10-16T15:24:27.584Z,10.63
2023-10-16T15:26:55.496Z,10.48
2023-10-16T15:29:24.890Z,10.43
2023-10-16T15:31:52.827Z,10.47
2023-10-16T15:34:21.721Z,10.38
2023-10-16T15:36:50.783Z,10.25
2023-10-16T15:39:23.094Z,10.18
2023-10-16T15:41:51.839Z,10.31
2023-10-16T15:44:22.832Z,10.15
2023-10-16T15:46:52.233Z,10.10
2023-10-16T15:49:20.685Z,10.00
2023-10-16T15:51:49.155Z,9.97
2023-10-16T15:54:17.214Z,9.83
2023-10-16T15:56:45.419Z,9.81
2023-10-16T15:59:13.374Z,9.80
2023-10-16T16:01:43.445Z,9.77
2023-10-16T16:04:19.536Z,9.76
2023-10-16T16:06:47.619Z,9.73
2023-10-16T16:09:15.564Z,9.64
2023-10-16T16:11:46.329Z,9.58
2023-10-16T16:14:17.278Z,9.51
2023-10-16T16:16:47.246Z,9.65
2023-10-16T16:19:16.481Z,9.54
2023-10-16T16:21:44.406Z,9.50
2023-10-16T16:24:13.581Z,9.42
2023-10-16T16:26:42.544Z,9.42
2023-10-16T16:29:10.565Z,9.37
2023-10-16T16:31:38.644Z,9.37
2023-10-16T16:34:07.877Z,9.32
2023-10-16T16:36:41.273Z,9.28
2023-10-16T16:39:13.707Z,9.28
2023-10-16T16:41:41.865Z,9.25
2023-10-16T16:44:10.122Z,9.23
2023-10-16T16:46:38.053Z,9.18
2023-10-16T16:49:11.479Z,9.22
2023-10-16T16:51:41.162Z,9.20
2023-10-16T16:54:09.357Z,9.23
2023-10-16T16:56:38.464Z,9.15
2023-10-16T16:59:10.590Z,9.18
2023-10-16T17:01:38.711Z,9.15
2023-10-16T17:04:08.251Z,9.18
2023-10-16T17:06:36.807Z,9.24
2023-10-16T17:09:06.178Z,9.19
2023-10-16T17:11:34.116Z,9.21
2023-10-16T17:14:02.117Z,9.26
2023-10-16T17:16:30.035Z,9.25
2023-10-16T17:18:59.386Z,9.25
2023-10-16T17:21:28.278Z,9.23
2023-10-16T17:24:02.048Z,9.25
2023-10-16T17:26:33.783Z,9.23
2023-10-16T17:29:03.977Z,9.22
2023-10-16T17:31:32.330Z,9.26
2023-10-16T17:34:00.798Z,9.33
2023-10-16T17:36:28.736Z,9.23
2023-10-16T17:38:56.732Z,9.21
2023-10-16T17:41:24.743Z,9.02
2023-10-16T17:43:54.198Z,8.98
2023-10-16T17:46:22.183Z,9.01
2023-10-16T17:48:50.232Z,8.99
2023-10-16T17:51:18.181Z,8.92
2023-10-16T17:53:46.460Z,8.87
2023-10-16T17:56:14.917Z,8.87
2023-10-16T17:58:43.669Z,8.83
2023-10-16T18:01:14.988Z,8.79
2023-10-16T18:03:43.049Z,8.88
2023-10-16T18:06:13.071Z,8.83
2023-10-16T18:08:44.535Z,8.75
2023-10-16T18:11:14.913Z,8.70
2023-10-16T18:13:43.887Z,8.70
2023-10-16T18:16:13.114Z,8.64
2023-10-16T18:18:41.097Z,8.67
2023-10-16T18:21:09.989Z,8.65
2023-10-16T18:23:38.170Z,8.74
2023-10-16T18:26:06.252Z,8.60
2023-10-16T18:28:34.438Z,8.59
2023-10-16T18:31:04.162Z,8.55
2023-10-16T18:33:33.489Z,8.52
2023-10-16T18:36:03.023Z,8.45
2023-10-16T18:38:31.193Z,8.46
2023-10-16T18:41:00.483Z,8.36
2023-10-16T18:43:28.379Z,8.36
2023-10-16T18:45:57.606Z,8.35
2023-10-16T18:48:25.779Z,8.30
2023-10-16T18:50:55.123Z,8.33
2023-10-16T18:53:23.126Z,8.29
2023-10-16T18:55:52.313Z,8.29
2023-10-16T18:58:20.206Z,8.25
2023-10-16T19:00:48.317Z,8.18
2023-10-16T19:03:16.927Z,8.17
2023-10-16T19:05:45.594Z,8.16
2023-10-16T19:08:15.401Z,8.16
2023-10-16T19:10:43.436Z,8.11
2023-10-16T19:13:12.836Z,8.20
2023-10-16T19:15:40.761Z,8.10
2023-10-16T19:18:12.832Z,8.08
2023-10-16T19:20:40.960Z,8.07
2023-10-16T19:23:09.221Z,8.06
2023-10-16T19:25:39.063Z,8.06
2023-10-16T19:28:08.416Z,8.05
2023-10-16T19:30:36.499Z,8.04
2023-10-16T19:33:05.211Z,8.04
2023-10-16T19:35:36.434Z,7.99
2023-10-16T19:38:04.999Z,8.00
2023-10-16T19:40:32.977Z,8.01
2023-10-16T19:43:02.157Z,7.99
2023-10-16T19:45:32.151Z,7.96
2023-10-16T19:48:00.247Z,8.01
2023-10-16T19:50:28.366Z,7.98
2023-10-16T19:52:57.086Z,7.95
2023-10-16T19:55:25.160Z,7.95
2023-10-16T19:57:54.364Z,7.94
2023-10-16T20:00:25.887Z,7.94
2023-10-16T20:02:55.237Z,7.95
2023-10-16T20:05:25.068Z,7.97
2023-10-16T20:07:54.205Z,8.01
2023-10-16T20:10:22.096Z,8.05
2023-10-16T20:12:51.513Z,8.03
2023-10-16T20:15:20.356Z,8.06
2023-10-16T20:17:51.182Z,8.04
2023-10-16T20:20:24.306Z,8.05
2023-10-16T20:22:54.705Z,8.13
2023-10-16T20:25:22.808Z,8.12
2023-10-16T20:27:51.432Z,8.15
2023-10-16T20:30:19.553Z,8.15
2023-10-16T20:32:49.588Z,8.20
2023-10-16T20:35:18.373Z,8.15
2023-10-16T20:37:50.964Z,8.19
2023-10-16T20:40:19.750Z,8.16
2023-10-16T20:42:48.245Z,8.16
2023-10-16T20:45:16.175Z,8.19
2023-10-16T20:47:44.921Z,8.25
2023-10-16T20:50:19.695Z,8.26
2023-10-16T20:52:48.279Z,8.25
2023-10-16T20:55:17.438Z,8.21
2023-10-16T20:57:45.553Z,8.22
2023-10-16T21:00:15.687Z,8.23
2023-10-16T21:02:44.785Z,8.27
2023-10-16T21:05:15.370Z,8.23
2023-10-16T21:07:45.331Z,8.21
2023-10-16T21:10:13.721Z,8.23
2023-10-16T21:12:41.875Z,8.19
2023-10-16T21:15:13.293Z,8.20
2023-10-16T21:17:42.201Z,8.29
2023-10-16T21:20:11.889Z,8.24
2023-10-16T21:22:43.158Z,8.31
2023-10-16T21:25:11.292Z,8.26
2023-10-16T21:27:39.357Z,8.28
2023-10-16T21:30:08.973Z,8.25
2023-10-16T21:32:36.976Z,8.23
2023-10-16T21:35:07.591Z,8.16
2023-10-16T21:37:36.216Z,8.14
2023-10-16T21:40:07.042Z,8.14
2023-10-16T21:42:35.334Z,8.12
2023-10-16T21:45:08.159Z,8.07
2023-10-16T21:47:37.212Z,8.05
2023-10-16T21:50:07.289Z,7.99
2023-10-16T21:52:35.554Z,7.95
2023-10-16T21:55:07.464Z,7.91
2023-10-16T21:57:35.942Z,7.90
2023-10-16T22:00:12.407Z,7.82
2023-10-16T22:02:41.371Z,7.79
2023-10-16T22:05:13.102Z,7.75
2023-10-16T22:07:41.867Z,7.68
2023-10-16T22:10:13.046Z,7.64
2023-10-16T22:12:42.024Z,7.64
2023-10-16T22:15:12.327Z,7.60
2023-10-16T22:17:40.738Z,7.57
2023-10-16T22:20:11.090Z,7.56
2023-10-16T22:22:39.464Z,7.54
2023-10-16T22:25:08.142Z,7.51
2023-10-16T22:27:37.442Z,7.49
2023-10-16T22:30:06.511Z,7.49
2023-10-16T22:32:35.158Z,7.44
2023-10-16T22:35:05.534Z,7.39
2023-10-16T22:37:34.334Z,7.38
2023-10-16T22:40:04.613Z,7.34
2023-10-16T22:42:32.495Z,7.30
2023-10-16T22:45:01.980Z,7.26
2023-10-16T22:47:29.937Z,7.23
2023-10-16T22:49:58.171Z,7.22
2023-10-16T22:52:27.474Z,7.25
2023-10-16T22:54:55.654Z,7.22
2023-10-16T22:57:24.298Z,7.18
2023-10-16T22:59:52.790Z,7.19
2023-10-16T23:02:22.284Z,7.14
2023-10-16T23:04:51.456Z,7.13
2023-10-16T23:07:20.413Z,7.11
2023-10-16T23:09:48.634Z,7.09
2023-10-16T23:12:20.200Z,7.07
2023-10-16T23:14:50.702Z,7.05
2023-10-16T23:17:18.988Z,7.02
2023-10-16T23:19:48.717Z,7.01
2023-10-16T23:22:18.347Z,7.00
2023-10-16T23:24:46.652Z,6.98
2023-10-16T23:27:14.642Z,7.00
2023-10-16T23:29:43.496Z,7.02
2023-10-16T23:32:13.135Z,7.05
2023-10-16T23:34:49.016Z,7.03
2023-10-16T23:37:21.413Z,7.00
2023-10-16T23:39:49.505Z,6.99
2023-10-16T23:42:19.046Z,7.00
2023-10-16T23:44:50.812Z,6.95
2023-10-16T23:47:22.645Z,6.95
2023-10-16T23:49:51.465Z,6.95
2023-10-16T23:52:25.095Z,6.95
2023-10-16T23:54:58.173Z,6.91
2023-10-16T23:57:30.024Z,6.95
